createdAt,value
2023-04-29T00:00:09.176Z,17.03
2023-04-29T00:02:36.335Z,17.04
2023-04-29T00:05:05.259Z,17.06
2023-04-29T00:07:34.971Z,17.07
2023-04-29T00:10:01.610Z,17.07
2023-04-29T00:12:32.041Z,17.09
2023-04-29T00:14:58.829Z,17.04
2023-04-29T00:17:25.399Z,17.07
2023-04-29T00:19:52.087Z,17.03
2023-04-29T00:22:19.111Z,17.04
2023-04-29T00:24:45.764Z,17.02
2023-04-29T00:27:12.315Z,17.07
2023-04-29T00:29:38.851Z,17.04
2023-04-29T00:32:05.586Z,17.02
2023-04-29T00:34:32.156Z,17.03
2023-04-29T00:36:58.627Z,17.02
2023-04-29T00:39:25.754Z,17.05
2023-04-29T00:41:52.996Z,17.01
2023-04-29T00:44:19.485Z,17.04
2023-04-29T00:46:46.131Z,17.04
2023-04-29T00:49:13.850Z,17.10
2023-04-29T00:51:41.317Z,17.08
2023-04-29T00:54:09.006Z,17.11
2023-04-29T00:56:36.642Z,17.09
2023-04-29T00:59:04.729Z,17.13
2023-04-29T01:01:31.338Z,17.14
2023-04-29T01:03:58.900Z,17.15
2023-04-29T01:07:01.492Z,17.16
2023-04-29T01:09:30.777Z,17.20
2023-04-29T01:12:06.788Z,17.15
2023-04-29T01:14:34.850Z,17.18
2023-04-29T01:17:10.324Z,17.19
2023-04-29T01:19:48.948Z,17.11
2023-04-29T01:22:18.204Z,17.18
2023-04-29T01:24:44.939Z,17.12
2023-04-29T01:27:28.437Z,17.10
2023-04-29T01:30:38.265Z,17.13
2023-04-29T01:33:16.869Z,17.17
2023-04-29T01:36:29.771Z,17.14
2023-04-29T01:39:07.279Z,17.15
2023-04-29T01:41:44.729Z,17.16
2023-04-29T01:44:17.038Z,17.15
2023-04-29T01:46:49.577Z,17.16
2023-04-29T01:49:16.307Z,17.12
2023-04-29T01:51:42.798Z,17.13
2023-04-29T01:54:09.636Z,17.13
2023-04-29T01:56:36.233Z,17.20
2023-04-29T01:59:02.706Z,17.19
2023-04-29T02:01:29.510Z,17.22
2023-04-29T02:03:56.213Z,17.14
2023-04-29T02:06:22.880Z,17.11
2023-04-29T02:08:49.392Z,17.16
2023-04-29T02:11:16.353Z,17.21
2023-04-29T02:13:43.003Z,17.24
2023-04-29T02:16:10.682Z,17.26
2023-04-29T02:18:37.495Z,17.30
2023-04-29T02:21:04.138Z,17.32
2023-04-29T02:23:31.200Z,17.28
2023-04-29T02:25:57.756Z,17.36
2023-04-29T02:28:24.315Z,17.39
2023-04-29T02:30:50.819Z,17.36
2023-04-29T02:33:18.457Z,17.37
2023-04-29T02:35:45.301Z,17.36
2023-04-29T02:38:12.116Z,17.38
2023-04-29T02:40:45.875Z,17.35
2023-04-29T02:43:12.868Z,17.30
2023-04-29T02:45:39.683Z,17.33
2023-04-29T02:48:06.904Z,17.28
2023-04-29T02:50:33.717Z,17.24
2023-04-29T02:53:00.356Z,17.29
2023-04-29T02:55:27.094Z,17.32
2023-04-29T02:57:54.282Z,17.36
2023-04-29T03:00:21.223Z,17.33
2023-04-29T03:02:48.629Z,17.34
2023-04-29T03:05:15.598Z,17.36
2023-04-29T03:07:42.188Z,17.33
2023-04-29T03:10:09.369Z,17.28
2023-04-29T03:12:36.184Z,17.33
2023-04-29T03:15:02.920Z,17.31
2023-04-29T03:17:29.547Z,17.33
2023-04-29T03:19:56.180Z,17.35
2023-04-29T03:22:22.916Z,17.32
2023-04-29T03:24:49.503Z,17.34
2023-04-29T03:27:16.021Z,17.35
2023-04-29T03:29:42.500Z,17.34
2023-04-29T03:32:09.168Z,17.30
2023-04-29T03:34:36.040Z,17.27
2023-04-29T03:37:02.691Z,17.28
2023-04-29T03:39:32.377Z,17.29
2023-04-29T03:41:59.804Z,17.28
2023-04-29T03:44:26.495Z,17.28
2023-04-29T03:46:53.009Z,17.26
2023-04-29T03:49:19.522Z,17.25
2023-04-29T03:51:46.279Z,17.30
2023-04-29T03:54:13.355Z,17.24
2023-04-29T03:56:39.934Z,17.24
2023-04-29T03:59:06.753Z,17.13
2023-04-29T04:01:33.510Z,17.13
2023-04-29T04:04:00.583Z,17.19
2023-04-29T04:06:27.736Z,17.21
2023-04-29T04:08:54.232Z,17.19
2023-04-29T04:11:20.748Z,17.13
2023-04-29T04:13:47.222Z,17.16
2023-04-29T04:16:13.814Z,17.11
2023-04-29T04:18:40.405Z,17.09
2023-04-29T04:21:11.236Z,17.08
2023-04-29T04:23:40.622Z,17.10
2023-04-29T04:26:07.763Z,17.06
2023-04-29T04:28:34.301Z,17.05
2023-04-29T04:31:00.845Z,17.02
2023-04-29T04:33:28.538Z,17.04
2023-04-29T04:35:55.474Z,17.10
2023-04-29T04:38:25.406Z,16.97
2023-04-29T04:40:51.981Z,16.88
2023-04-29T04:43:18.936Z,16.94
2023-04-29T04:45:45.841Z,16.96
2023-04-29T04:48:12.525Z,16.94
2023-04-29T04:50:39.188Z,16.90
2023-04-29T04:53:05.731Z,16.87
2023-04-29T04:55:33.462Z,16.94
2023-04-29T04:58:00.406Z,16.95
2023-04-29T05:00:27.004Z,16.97
2023-04-29T05:02:53.612Z,16.97
2023-04-29T05:05:20.285Z,16.99
2023-04-29T05:07:47.323Z,16.95
2023-04-29T05:10:13.837Z,16.90
2023-04-29T05:12:40.633Z,16.92
2023-04-29T05:15:07.960Z,16.96
2023-04-29T05:17:36.449Z,16.99
2023-04-29T05:20:03.502Z,16.96
2023-04-29T05:22:30.030Z,16.92
2023-04-29T05:25:03.118Z,16.97
2023-04-29T05:27:29.995Z,16.97
2023-04-29T05:29:57.012Z,16.98
2023-04-29T05:32:23.830Z,16.99
2023-04-29T05:34:50.773Z,17.01
2023-04-29T05:37:17.434Z,17.03
2023-04-29T05:39:44.086Z,17.00
2023-04-29T05:42:10.585Z,17.03
2023-04-29T05:44:37.158Z,17.03
2023-04-29T05:47:04.157Z,17.00
2023-04-29T05:49:30.784Z,17.03
2023-04-29T05:51:57.330Z,16.98
2023-04-29T05:54:23.861Z,16.94
2023-04-29T05:56:50.430Z,16.93
2023-04-29T05:59:16.930Z,16.96
2023-04-29T06:01:43.654Z,16.94
2023-04-29T06:04:10.306Z,16.98
2023-04-29T06:06:37.125Z,17.04
2023-04-29T06:09:08.565Z,17.00
2023-04-29T06:11:40.337Z,16.97
2023-04-29T06:14:06.945Z,17.03
2023-04-29T06:16:34.735Z,17.03
2023-04-29T06:19:02.071Z,17.03
2023-04-29T06:21:28.853Z,17.05
2023-04-29T06:23:55.353Z,16.95
2023-04-29T06:26:22.418Z,17.01
2023-04-29T06:28:48.892Z,17.08
2023-04-29T06:31:15.904Z,17.04
2023-04-29T06:33:43.118Z,17.04
2023-04-29T06:36:09.596Z,17.03
2023-04-29T06:38:36.232Z,16.98
2023-04-29T06:41:03.629Z,16.99
2023-04-29T06:43:30.866Z,17.02
2023-04-29T06:45:57.474Z,17.05
2023-04-29T06:48:24.177Z,17.04
2023-04-29T06:50:51.622Z,17.02
2023-04-29T06:53:18.646Z,17.05
2023-04-29T06:55:46.410Z,17.05
2023-04-29T06:58:14.201Z,17.08
2023-04-29T07:00:41.020Z,17.11
2023-04-29T07:03:07.706Z,17.04
2023-04-29T07:05:35.015Z,17.03
2023-04-29T07:08:01.836Z,17.05
2023-04-29T07:10:28.736Z,17.11
2023-04-29T07:12:55.319Z,17.06
2023-04-29T07:15:21.846Z,17.11
2023-04-29T07:17:48.456Z,17.17
2023-04-29T07:20:15.115Z,17.11
2023-04-29T07:22:41.724Z,17.06
2023-04-29T07:25:08.682Z,17.12
2023-04-29T07:27:35.746Z,17.13
2023-04-29T07:30:03.446Z,17.01
2023-04-29T07:32:31.848Z,17.10
2023-04-29T07:34:59.149Z,17.16
2023-04-29T07:37:25.947Z,17.21
2023-04-29T07:39:52.916Z,17.27
2023-04-29T07:42:19.438Z,17.26
2023-04-29T07:44:45.944Z,17.26
2023-04-29T07:47:12.629Z,17.33
2023-04-29T07:49:39.163Z,17.23
2023-04-29T07:52:07.748Z,17.29
2023-04-29T07:54:34.453Z,17.25
2023-04-29T07:57:03.572Z,17.28
2023-04-29T07:59:30.980Z,17.09
2023-04-29T08:01:57.637Z,17.04
2023-04-29T08:04:24.592Z,17.14
2023-04-29T08:06:51.582Z,16.95
2023-04-29T08:09:18.142Z,16.93
2023-04-29T08:11:45.908Z,16.70
2023-04-29T08:14:12.651Z,16.78
2023-04-29T08:16:39.369Z,16.86
2023-04-29T08:19:05.900Z,17.05
2023-04-29T08:21:32.877Z,17.14
2023-04-29T08:23:59.495Z,17.15
2023-04-29T08:26:26.795Z,17.27
2023-04-29T08:28:53.333Z,17.35
2023-04-29T08:31:21.763Z,17.37
2023-04-29T08:33:48.955Z,17.21
2023-04-29T08:36:15.588Z,17.33
2023-04-29T08:38:42.091Z,17.36
2023-04-29T08:41:12.354Z,17.39
2023-04-29T08:43:40.848Z,17.12
2023-04-29T08:46:08.286Z,17.02
2023-04-29T08:48:37.864Z,17.12
2023-04-29T08:51:04.989Z,17.05
2023-04-29T08:53:31.697Z,16.96
2023-04-29T08:56:03.676Z,17.10
2023-04-29T08:58:35.394Z,17.10
2023-04-29T09:01:02.613Z,17.17
2023-04-29T09:03:37.929Z,17.39
2023-04-29T09:06:06.607Z,17.55
2023-04-29T09:08:33.889Z,17.64
2023-04-29T09:11:01.439Z,17.72
2023-04-29T09:13:32.120Z,17.62
2023-04-29T09:15:58.939Z,17.57
2023-04-29T09:18:45.210Z,17.76
2023-04-29T09:21:16.167Z,17.78
2023-04-29T09:23:42.848Z,17.83
2023-04-29T09:26:09.438Z,17.91
2023-04-29T09:28:36.599Z,18.05
2023-04-29T09:31:06.585Z,18.07
2023-04-29T09:33:50.271Z,18.08
2023-04-29T09:36:35.230Z,17.88
2023-04-29T09:39:01.939Z,17.90
2023-04-29T09:41:28.516Z,17.58
2023-04-29T09:44:07.460Z,17.39
2023-04-29T09:46:37.188Z,17.34
2023-04-29T09:49:07.561Z,17.36
2023-04-29T09:51:51.864Z,17.26
2023-04-29T09:54:22.863Z,17.55
2023-04-29T09:56:51.830Z,17.60
2023-04-29T09:59:19.607Z,17.93
2023-04-29T10:01:50.622Z,18.03
2023-04-29T10:04:20.016Z,18.28
2023-04-29T10:06:49.622Z,18.58
2023-04-29T10:09:17.446Z,18.66
2023-04-29T10:11:49.423Z,18.64
2023-04-29T10:14:20.600Z,18.69
2023-04-29T10:16:59.339Z,18.49
2023-04-29T10:19:47.580Z,18.48
2023-04-29T10:22:22.897Z,18.21
2023-04-29T10:24:49.696Z,18.39
2023-04-29T10:27:17.423Z,18.29
2023-04-29T10:29:45.363Z,18.22
2023-04-29T10:32:14.456Z,18.22
2023-04-29T10:34:42.768Z,18.58
2023-04-29T10:37:11.418Z,18.51
2023-04-29T10:39:50.614Z,18.50
2023-04-29T10:42:36.530Z,18.62
2023-04-29T10:45:19.022Z,18.54
2023-04-29T10:48:06.726Z,18.55
2023-04-29T10:50:59.810Z,18.62
2023-04-29T10:53:27.999Z,18.73
2023-04-29T10:56:00.008Z,18.51
2023-04-29T10:58:42.825Z,18.57
2023-04-29T11:01:11.929Z,18.54
2023-04-29T11:04:01.022Z,18.55
2023-04-29T11:06:36.776Z,18.74
2023-04-29T11:09:31.363Z,18.33
2023-04-29T11:12:01.596Z,18.62
2023-04-29T11:14:32.599Z,18.67
2023-04-29T11:17:02.392Z,18.43
2023-04-29T11:20:02.313Z,18.63
2023-04-29T11:22:33.903Z,18.76
2023-04-29T11:25:06.320Z,19.02
2023-04-29T11:27:34.753Z,19.02
2023-04-29T11:30:04.900Z,19.05
2023-04-29T11:32:33.437Z,19.42
2023-04-29T11:35:14.377Z,19.74
2023-04-29T11:37:43.229Z,19.63
2023-04-29T11:40:12.112Z,18.98
2023-04-29T11:42:47.391Z,18.74
2023-04-29T11:45:15.218Z,18.77
2023-04-29T11:47:46.542Z,18.85
2023-04-29T11:50:16.813Z,19.07
2023-04-29T11:52:44.815Z,19.14
2023-04-29T11:55:12.839Z,18.84
2023-04-29T11:57:40.580Z,18.66
2023-04-29T12:00:14.536Z,18.69
2023-04-29T12:02:46.263Z,18.55
2023-04-29T12:05:15.976Z,18.64
2023-04-29T12:07:43.376Z,18.53
2023-04-29T12:10:11.285Z,18.53
2023-04-29T12:12:40.976Z,18.43
2023-04-29T12:15:10.273Z,18.63
2023-04-29T12:17:38.162Z,18.51
2023-04-29T12:20:06.130Z,18.62
2023-04-29T12:22:33.211Z,18.65
2023-04-29T12:24:59.792Z,18.70
2023-04-29T12:27:26.879Z,18.58
2023-04-29T12:29:53.385Z,18.59
2023-04-29T12:32:23.170Z,18.31
2023-04-29T12:34:52.754Z,18.22
2023-04-29T12:37:21.412Z,18.41
2023-04-29T12:39:50.003Z,18.12
2023-04-29T12:42:19.388Z,18.15
2023-04-29T12:44:49.692Z,18.10
2023-04-29T12:47:16.920Z,18.26
2023-04-29T12:49:45.685Z,18.19
2023-04-29T12:52:13.446Z,18.00
2023-04-29T12:54:44.340Z,18.05
2023-04-29T12:57:12.194Z,18.18
2023-04-29T12:59:39.767Z,18.26
2023-04-29T13:02:06.497Z,18.27
2023-04-29T13:04:33.242Z,18.15
2023-04-29T13:07:04.366Z,18.15
2023-04-29T13:09:31.422Z,18.22
2023-04-29T13:11:59.249Z,18.13
2023-04-29T13:14:26.290Z,17.99
2023-04-29T13:16:52.830Z,17.95
2023-04-29T13:19:38.337Z,17.95
2023-04-29T13:22:06.753Z,17.94
2023-04-29T13:24:35.272Z,18.05
2023-04-29T13:27:03.096Z,18.00
2023-04-29T13:29:29.842Z,17.85
2023-04-29T13:31:56.612Z,17.78
2023-04-29T13:34:23.330Z,17.85
2023-04-29T13:36:49.900Z,17.99
2023-04-29T13:39:17.511Z,18.22
2023-04-29T13:41:46.144Z,18.09
2023-04-29T13:46:44.356Z,18.43
2023-04-29T13:49:35.840Z,18.25
2023-04-29T13:54:58.482Z,18.08
2023-04-29T13:58:02.790Z,18.05
2023-04-29T14:00:01.415Z,18.18
2023-04-29T14:02:30.876Z,18.37
2023-04-29T14:04:57.963Z,18.47
2023-04-29T14:07:24.904Z,18.61
2023-04-29T14:09:51.946Z,18.62
2023-04-29T14:12:18.490Z,18.62
2023-04-29T14:14:44.983Z,18.47
2023-04-29T14:17:11.533Z,18.37
2023-04-29T14:19:38.053Z,18.45
2023-04-29T14:22:04.537Z,18.57
2023-04-29T14:24:31.325Z,18.44
2023-04-29T14:26:58.004Z,18.62
2023-04-29T14:29:24.666Z,18.63
2023-04-29T14:31:51.201Z,18.65
2023-04-29T14:34:19.455Z,18.51
2023-04-29T14:36:46.897Z,18.42
2023-04-29T14:39:13.538Z,18.29
2023-04-29T14:41:40.115Z,18.38
2023-04-29T14:44:06.751Z,18.28
2023-04-29T14:46:33.500Z,18.29
2023-04-29T14:49:00.067Z,18.25
2023-04-29T14:51:27.392Z,18.16
2023-04-29T14:53:53.927Z,18.21
2023-04-29T14:56:20.418Z,18.22
2023-04-29T14:58:47.167Z,18.25
2023-04-29T15:01:13.786Z,18.31
2023-04-29T15:03:44.356Z,18.40
2023-04-29T15:06:12.016Z,18.35
2023-04-29T15:08:38.537Z,18.46
2023-04-29T15:11:05.357Z,18.33
2023-04-29T15:13:32.221Z,18.47
2023-04-29T15:15:59.059Z,18.31
2023-04-29T15:18:26.419Z,18.27
2023-04-29T15:20:53.721Z,18.38
2023-04-29T15:23:20.524Z,18.45
2023-04-29T15:25:47.311Z,18.41
2023-04-29T15:28:14.093Z,18.33
2023-04-29T15:30:40.586Z,18.34
2023-04-29T15:33:07.141Z,18.33
2023-04-29T15:35:34.637Z,18.26
2023-04-29T15:38:01.220Z,18.31
2023-04-29T15:40:27.827Z,18.30
2023-04-29T15:42:54.358Z,18.35
2023-04-29T15:45:21.154Z,18.33
2023-04-29T15:47:48.418Z,18.40
2023-04-29T15:50:15.506Z,18.49
2023-04-29T15:52:42.250Z,18.57
2023-04-29T15:55:08.972Z,18.56
2023-04-29T15:57:41.075Z,18.61
2023-04-29T16:00:08.965Z,18.64
2023-04-29T16:02:35.649Z,18.63
2023-04-29T16:05:02.310Z,18.59
2023-04-29T16:07:28.850Z,18.62
2023-04-29T16:09:55.506Z,18.55
2023-04-29T16:12:22.184Z,18.50
2023-04-29T16:14:48.756Z,18.38
2023-04-29T16:17:16.150Z,18.36
2023-04-29T16:19:42.683Z,18.24
2023-04-29T16:22:09.614Z,18.34
2023-04-29T16:24:36.124Z,18.44
2023-04-29T16:27:02.842Z,18.48
2023-04-29T16:29:29.394Z,18.41
2023-04-29T16:31:55.882Z,18.24
2023-04-29T16:34:22.403Z,18.28
2023-04-29T16:36:48.935Z,18.24
2023-04-29T16:39:15.455Z,18.14
2023-04-29T16:41:42.007Z,18.06
2023-04-29T16:44:09.104Z,18.06
2023-04-29T16:46:35.954Z,18.11
2023-04-29T16:49:03.009Z,18.10
2023-04-29T16:51:29.738Z,18.10
2023-04-29T16:53:56.722Z,18.18
2023-04-29T16:56:24.520Z,18.19
2023-04-29T16:58:51.178Z,18.17
2023-04-29T17:01:19.794Z,18.14
2023-04-29T17:03:47.916Z,18.16
2023-04-29T17:06:16.023Z,18.31
2023-04-29T17:08:44.224Z,18.28
2023-04-29T17:11:10.958Z,18.32
2023-04-29T17:13:37.495Z,18.29
2023-04-29T17:16:04.363Z,18.26
2023-04-29T17:18:31.142Z,18.22
2023-04-29T17:20:57.634Z,18.20
2023-04-29T17:23:24.760Z,18.34
2023-04-29T17:25:51.490Z,18.28
2023-04-29T17:28:18.361Z,18.21
2023-04-29T17:30:45.039Z,18.02
2023-04-29T17:33:13.370Z,18.05
2023-04-29T17:35:40.840Z,18.12
2023-04-29T17:38:07.445Z,18.04
2023-04-29T17:40:34.056Z,17.98
2023-04-29T17:43:00.677Z,18.00
2023-04-29T17:45:27.222Z,17.93
2023-04-29T17:47:54.411Z,17.84
2023-04-29T17:50:21.003Z,17.87
2023-04-29T17:52:47.763Z,17.89
2023-04-29T17:55:14.275Z,17.76
2023-04-29T17:57:40.922Z,17.85
2023-04-29T18:00:08.507Z,17.81
2023-04-29T18:02:35.150Z,17.66
2023-04-29T18:05:03.436Z,17.60
2023-04-29T18:07:30.087Z,17.37
2023-04-29T18:09:57.110Z,17.61
2023-04-29T18:12:24.842Z,17.42
2023-04-29T18:14:51.985Z,17.41
2023-04-29T18:17:18.921Z,17.44
2023-04-29T18:19:51.030Z,17.37
2023-04-29T18:22:17.535Z,17.28
2023-04-29T18:24:44.173Z,17.27
2023-04-29T18:27:10.688Z,17.17
2023-04-29T18:29:37.281Z,17.15
2023-04-29T18:32:06.456Z,17.22
2023-04-29T18:34:34.432Z,17.23
2023-04-29T18:37:01.442Z,17.28
2023-04-29T18:39:27.974Z,17.34
2023-04-29T18:41:55.419Z,17.39
2023-04-29T18:44:21.912Z,17.51
2023-04-29T18:46:48.416Z,17.40
2023-04-29T18:49:17.049Z,17.43
2023-04-29T18:51:46.583Z,17.44
2023-04-29T18:54:18.553Z,17.41
2023-04-29T18:56:49.536Z,17.48
2023-04-29T18:59:19.308Z,17.55
2023-04-29T19:01:47.151Z,17.51
2023-04-29T19:04:14.117Z,17.48
2023-04-29T19:06:41.865Z,17.34
2023-04-29T19:09:08.707Z,17.36
2023-04-29T19:11:35.341Z,17.46
2023-04-29T19:14:03.960Z,17.34
2023-04-29T19:16:30.456Z,17.41
2023-04-29T19:18:57.004Z,17.34
2023-04-29T19:21:23.616Z,17.19
2023-04-29T19:23:50.109Z,17.28
2023-04-29T19:26:16.736Z,17.31
2023-04-29T19:28:43.317Z,17.35
2023-04-29T19:31:11.618Z,17.31
2023-04-29T19:33:38.250Z,17.29
2023-04-29T19:36:04.842Z,17.21
2023-04-29T19:38:31.361Z,17.07
2023-04-29T19:40:57.906Z,17.10
2023-04-29T19:43:24.471Z,16.96
2023-04-29T19:45:51.122Z,16.93
2023-04-29T19:48:17.692Z,16.81
2023-04-29T19:50:44.533Z,16.67
2023-04-29T19:53:11.533Z,16.71
2023-04-29T19:55:39.940Z,16.70
2023-04-29T19:58:07.227Z,16.70
2023-04-29T20:00:34.792Z,16.79
2023-04-29T20:03:01.615Z,16.74
2023-04-29T20:05:28.927Z,16.85
2023-04-29T20:07:56.351Z,16.75
2023-04-29T20:10:23.106Z,16.77
2023-04-29T20:12:49.817Z,16.81
2023-04-29T20:15:16.612Z,16.60
2023-04-29T20:17:43.355Z,16.70
2023-04-29T20:20:10.643Z,16.52
2023-04-29T20:22:37.374Z,16.49
2023-04-29T20:25:04.245Z,16.56
2023-04-29T20:27:30.880Z,16.51
2023-04-29T20:29:57.484Z,16.63
2023-04-29T20:32:24.260Z,16.58
2023-04-29T20:34:50.935Z,16.71
2023-04-29T20:37:17.562Z,16.73
2023-04-29T20:39:44.065Z,16.76
2023-04-29T20:42:10.731Z,16.69
2023-04-29T20:44:38.469Z,16.85
2023-04-29T20:47:06.004Z,16.83
2023-04-29T20:49:32.838Z,16.77
2023-04-29T20:51:59.910Z,16.73
2023-04-29T20:54:26.633Z,16.84
2023-04-29T20:56:53.160Z,16.77
2023-04-29T20:59:19.634Z,16.78
2023-04-29T21:01:46.458Z,16.63
2023-04-29T21:04:13.069Z,16.69
2023-04-29T21:06:39.698Z,16.78
2023-04-29T21:09:06.264Z,16.75
2023-04-29T21:11:32.791Z,16.65
2023-04-29T21:13:59.307Z,16.55
2023-04-29T21:16:26.916Z,16.51
2023-04-29T21:18:53.529Z,16.59
2023-04-29T21:21:20.085Z,16.53
2023-04-29T21:23:46.837Z,16.59
2023-04-29T21:26:15.058Z,16.41
2023-04-29T21:28:41.822Z,16.50
2023-04-29T21:31:15.269Z,16.39
2023-04-29T21:33:45.631Z,16.33
2023-04-29T21:36:12.792Z,16.34
2023-04-29T21:38:39.310Z,16.28
2023-04-29T21:41:06.639Z,16.31
2023-04-29T21:43:33.594Z,16.45
2023-04-29T21:46:00.690Z,16.57
2023-04-29T21:48:27.624Z,16.45
2023-04-29T21:50:54.185Z,16.40
2023-04-29T21:53:20.940Z,16.37
2023-04-29T21:55:47.742Z,16.36
2023-04-29T21:58:14.319Z,16.27
2023-04-29T22:00:47.882Z,16.29
2023-04-29T22:03:15.292Z,16.34
2023-04-29T22:05:42.131Z,16.32
2023-04-29T22:08:08.737Z,16.24
2023-04-29T22:10:35.260Z,16.21
2023-04-29T22:13:01.866Z,16.26
2023-04-29T22:15:29.642Z,16.14
2023-04-29T22:17:57.337Z,16.13
2023-04-29T22:20:24.524Z,16.06
2023-04-29T22:22:52.125Z,15.90
2023-04-29T22:25:20.956Z,15.89
2023-04-29T22:27:48.222Z,15.86
2023-04-29T22:30:14.962Z,15.73
2023-04-29T22:32:41.496Z,15.71
2023-04-29T22:35:08.127Z,15.61
2023-04-29T22:37:34.633Z,15.62
2023-04-29T22:40:01.913Z,15.54
2023-04-29T22:42:28.376Z,15.56
2023-04-29T22:44:54.835Z,15.55
2023-04-29T22:47:21.322Z,15.58
2023-04-29T22:49:47.917Z,15.54
2023-04-29T22:52:14.540Z,15.67
2023-04-29T22:54:41.112Z,15.61
2023-04-29T22:57:07.595Z,15.60
2023-04-29T22:59:34.139Z,15.59
2023-04-29T23:02:00.782Z,15.70
2023-04-29T23:04:27.629Z,15.61
2023-04-29T23:06:54.192Z,15.67
2023-04-29T23:09:20.776Z,15.71
2023-04-29T23:11:47.301Z,15.75
2023-04-29T23:14:13.758Z,15.63
2023-04-29T23:16:40.308Z,15.67
2023-04-29T23:19:07.535Z,15.65
2023-04-29T23:21:34.113Z,15.69
2023-04-29T23:24:00.635Z,15.62
2023-04-29T23:26:27.178Z,15.69
2023-04-29T23:28:53.733Z,15.61
2023-04-29T23:31:20.250Z,15.74
2023-04-29T23:33:46.813Z,15.75
2023-04-29T23:36:13.376Z,15.64
2023-04-29T23:38:39.891Z,15.59
2023-04-29T23:41:06.419Z,15.65
2023-04-29T23:43:33.243Z,15.57
2023-04-29T23:46:01.004Z,15.62
2023-04-29T23:48:27.595Z,15.58
2023-04-29T23:50:54.099Z,15.54
2023-04-29T23:53:20.620Z,15.46
2023-04-29T23:55:48.553Z,15.43
2023-04-29T23:58:15.059Z,15.41
